Time;durP1;ratioP1;P1;durP2;ratioP2;P2;SDS_P1;SDS_P2;PMS_P1;PMS_P2;Temp;Humidity;BMP_temperature;BMP_pressure;BME280_temperature;BME280_humidity;BME280_pressure;Samples;Min_cycle;Max_cycle;Signal;HPM_P1;HPM_P2
2022/06/06 00:00:40;;;;;;;8.45;5.93;;;10.10;1.00;;;10.95;99.41;99664.03;5041496;27;119648;-75
2022/06/06 00:03:09;;;;;;;10.18;5.50;;;10.10;1.00;;;11.06;98.63;99664.59;5062024;27;118278;-74
2022/06/06 00:05:41;;;;;;;12.00;6.78;;;10.10;1.00;;;11.18;98.05;99669.47;5060391;27;130170;-74
2022/06/06 00:08:12;;;;;;;9.02;6.50;;;10.00;1.00;;;11.06;98.21;99659.94;5061805;27;130477;-74
2022/06/06 00:10:41;;;;;;;9.68;5.93;;;10.10;1.00;;;11.07;98.83;99671.63;5062007;27;119952;-74
2022/06/06 00:13:12;;;;;;;12.32;7.10;;;10.10;1.00;;;11.03;98.80;99671.47;5061805;27;119617;-74
2022/06/06 00:15:41;;;;;;;15.88;6.50;;;10.10;1.00;;;10.99;99.10;99673.19;5061580;27;130276;-73
2022/06/06 00:18:09;;;;;;;9.30;6.05;;;10.10;1.00;;;10.92;99.52;99678.25;5063584;27;128663;-73
2022/06/06 00:20:37;;;;;;;10.50;6.55;;;10.00;1.00;;;10.89;99.67;99682.41;5062061;27;119622;-75
2022/06/06 00:23:06;;;;;;;12.50;6.60;;;10.00;1.00;;;10.91;99.36;99684.81;5064135;27;118997;-75
2022/06/06 00:25:36;;;;;;;18.33;6.78;;;9.90;1.00;;;10.91;99.58;99684.81;5063058;27;129389;-75
2022/06/06 00:28:05;;;;;;;9.18;6.43;;;9.90;1.00;;;10.87;98.97;99684.59;5063353;27;129256;-73
2022/06/06 00:30:34;;;;;;;10.48;6.68;;;9.90;3.10;;;10.79;99.90;99671.78;5060410;27;122160;-71
2022/06/06 00:35:48;;;;;;;7.95;6.32;;;9.90;38.90;;;10.71;100.00;99681.44;5061276;27;130050;-73
2022/06/06 00:38:16;;;;;;;11.32;6.22;;;9.90;58.50;;;10.72;100.00;99677.63;5060115;27;129398;-74
2022/06/06 00:40:51;;;;;;;11.25;6.68;;;9.90;62.50;;;10.65;100.00;99671.81;5060387;27;119476;-72
2022/06/06 00:43:20;;;;;;;10.70;7.68;;;9.90;67.50;;;10.61;100.00;99666.22;5063393;27;118566;-73
2022/06/06 00:45:51;;;;;;;10.32;7.72;;;9.90;77.30;;;10.64;100.00;99664.00;5059326;27;130935;-72
2022/06/06 00:48:25;;;;;;;10.68;7.30;;;9.90;78.40;;;10.62;100.00;99672.44;5061480;27;129535;-73
2022/06/06 00:51:00;;;;;;;11.60;6.97;;;9.80;92.20;;;10.63;100.00;99667.81;5063272;27;118700;-73
2022/06/06 00:53:40;;;;;;;10.50;6.95;;;9.80;95.10;;;10.58;100.00;99666.00;5061500;27;119636;-73
2022/06/06 00:56:19;;;;;;;10.48;7.85;;;9.80;99.90;;;10.60;100.00;99671.97;5061600;27;129271;-73
2022/06/06 00:58:51;;;;;;;10.13;7.78;;;9.80;99.90;;;10.57;100.00;99669.84;5060984;27;129669;-72
2022/06/06 01:01:20;;;;;;;11.88;7.80;;;9.70;99.90;;;10.53;100.00;99663.44;5061582;27;119774;-73
2022/06/06 01:03:49;;;;;;;11.18;7.78;;;9.70;99.90;;;10.51;100.00;99671.09;5060982;27;119559;-73
2022/06/06 01:06:22;;;;;;;12.82;8.52;;;9.70;99.90;;;10.46;100.00;99663.06;5060613;27;130608;-74
2022/06/06 01:08:51;;;;;;;11.90;7.90;;;9.60;99.90;;;10.41;100.00;99667.50;5045605;27;128287;-73
2022/06/06 01:11:21;;;;;;;11.48;8.60;;;9.70;99.90;;;10.45;100.00;99672.31;5060912;27;119539;-73
2022/06/06 01:13:50;;;;;;;11.35;8.35;;;9.70;99.90;;;10.41;100.00;99675.63;5061382;27;119228;-73
2022/06/06 01:16:42;;;;;;;13.80;8.85;;;9.60;99.90;;;10.42;100.00;99674.53;5045349;27;128642;-73
2022/06/06 01:19:53;;;;;;;13.00;9.10;;;9.60;99.90;;;10.36;100.00;99670.31;5062590;27;128582;-73
2022/06/06 01:23:12;;;;;;;14.27;9.02;;;9.60;99.90;;;10.33;100.00;99675.53;5061429;27;121207;-73
2022/06/06 01:26:33;;;;;;;12.30;8.40;;;9.60;99.90;;;10.31;100.00;99675.81;5044342;27;121725;-76
2022/06/06 01:29:08;;;;;;;13.75;8.60;;;9.60;99.90;;;10.25;100.00;99685.16;5060289;27;130278;-73
2022/06/06 01:31:43;;;;;;;14.30;9.35;;;9.60;99.90;;;10.18;100.00;99690.22;5059175;27;130491;-72
2022/06/06 01:34:14;;;;;;;12.60;9.18;;;9.60;99.90;;;10.16;100.00;99697.84;5062488;27;118568;-75
2022/06/06 01:36:43;;;;;;;13.95;9.60;;;9.60;99.90;;;10.11;100.00;99696.03;5060682;27;120119;-75
2022/06/06 01:39:13;;;;;;;12.20;8.90;;;9.70;99.90;;;10.00;100.00;99700.91;5060755;27;129804;-75
2022/06/06 01:41:52;;;;;;;12.93;9.10;;;9.60;99.90;;;10.00;100.00;99695.47;5060833;27;129744;-74
2022/06/06 01:44:30;;;;;;;14.90;10.63;;;9.50;99.90;;;10.11;100.00;99700.66;5061019;27;119680;-72
2022/06/06 01:47:03;;;;;;;13.25;10.23;;;9.50;99.90;;;10.14;100.00;99700.06;5060520;27;119564;-72
2022/06/06 01:49:35;;;;;;;13.52;9.48;;;9.60;99.90;;;10.20;100.00;99705.06;5058442;27;130736;-74
2022/06/06 01:52:09;;;;;;;12.43;10.27;;;9.50;99.90;;;10.20;100.00;99705.06;5060156;27;129687;-72
2022/06/06 01:54:38;;;;;;;13.38;9.82;;;9.50;99.90;;;10.23;100.00;99692.81;5058916;27;119495;-71
2022/06/06 01:57:10;;;;;;;15.40;10.77;;;9.60;99.90;;;10.29;100.00;99702.44;5059104;27;119771;-72
2022/06/06 01:59:41;;;;;;;12.23;9.93;;;9.70;99.90;;;10.40;100.00;99701.16;5061783;27;129441;-73
2022/06/06 02:02:11;;;;;;;12.77;9.90;;;9.70;99.90;;;10.39;100.00;99706.88;5061106;27;130714;-72
2022/06/06 02:04:39;;;;;;;15.65;10.60;;;9.70;99.90;;;10.37;100.00;99699.03;5060291;27;120438;-72
2022/06/06 02:07:08;;;;;;;15.68;10.35;;;9.70;99.90;;;10.41;100.00;99705.47;5060421;27;119888;-73
2022/06/06 02:09:36;;;;;;;13.57;10.15;;;9.70;99.90;;;10.49;100.00;99711.28;5059682;27;130157;-73
2022/06/06 02:12:09;;;;;;;15.80;10.85;;;9.80;99.90;;;10.55;100.00;99721.72;5076458;27;130092;-74
2022/06/06 02:14:39;;;;;;;14.48;9.88;;;9.90;99.90;;;10.57;100.00;99714.06;5061845;27;122736;-73
2022/06/06 02:17:08;;;;;;;12.07;9.82;;;9.90;99.90;;;10.62;100.00;99721.28;5076966;27;122388;-74
2022/06/06 02:19:37;;;;;;;15.82;10.27;;;9.90;99.90;;;10.68;100.00;99720.06;5059607;27;130927;-73
2022/06/06 02:22:06;;;;;;;18.65;10.23;;;9.90;99.90;;;10.72;100.00;99721.06;5061670;27;128577;-73
2022/06/06 02:24:35;;;;;;;13.63;9.85;;;10.00;99.90;;;10.78;100.00;99717.13;5060104;27;120921;-72
2022/06/06 02:27:04;;;;;;;13.75;9.20;;;10.00;99.90;;;10.87;100.00;99700.09;5061611;27;118978;-72
2022/06/06 02:29:33;;;;;;;15.48;9.80;;;10.10;99.90;;;11.00;100.00;99707.38;5059396;27;129804;-72
2022/06/06 02:32:05;;;;;;;14.43;10.02;;;10.10;99.90;;;11.23;100.00;99712.78;5059587;27;130649;-74
2022/06/06 02:34:33;;;;;;;11.88;9.20;;;10.10;99.90;;;11.29;100.00;99697.97;5061623;27;119161;-74
2022/06/06 02:37:01;;;;;;;14.88;9.75;;;10.10;99.90;;;11.27;100.00;99692.06;5058473;27;119706;-74
2022/06/06 02:39:30;;;;;;;11.60;9.32;;;10.20;99.90;;;11.23;100.00;99691.06;5058173;27;130677;-73
2022/06/06 02:41:59;;;;;;;11.43;9.27;;;10.20;99.90;;;11.10;100.00;99698.97;5059252;27;129127;-72
2022/06/06 02:44:28;;;;;;;12.48;9.00;;;10.20;99.90;;;11.10;100.00;99690.81;5062751;27;120895;-72
2022/06/06 02:46:56;;;;;;;12.15;9.27;;;10.30;99.90;;;11.17;100.00;99692.31;5059613;27;118995;-74
2022/06/06 02:49:26;;;;;;;11.15;8.95;;;10.40;99.90;;;11.26;100.00;99693.16;5058919;27;130324;-74
2022/06/06 02:51:54;;;;;;;12.63;8.55;;;10.40;99.90;;;11.38;100.00;99687.94;5059128;27;130135;-73
2022/06/06 02:54:23;;;;;;;10.50;7.85;;;10.50;99.90;;;11.58;100.00;99691.25;5059359;27;119339;-72
2022/06/06 02:56:51;;;;;;;8.60;7.32;;;10.60;99.90;;;11.67;100.00;99697.50;5059733;27;119973;-72
2022/06/06 02:59:22;;;;;;;11.75;8.18;;;10.60;99.90;;;11.69;100.00;99684.41;5058721;27;131085;-73
2022/06/06 03:01:51;;;;;;;11.93;7.40;;;10.80;99.90;;;12.15;100.00;99694.00;5042939;27;129215;-73
2022/06/06 03:04:21;;;;;;;9.02;6.47;;;11.10;99.90;;;13.29;100.00;99696.69;5057922;27;123211;-73
2022/06/06 03:07:09;;;;;;;6.63;5.03;;;11.90;99.90;;;14.79;91.80;99705.72;5059161;27;122988;-76
2022/06/06 03:09:51;;;;;;;6.40;4.40;;;12.80;1.00;;;16.56;82.48;99701.34;5074973;27;129753;-75
2022/06/06 03:12:47;;;;;;;7.53;4.38;;;13.70;1.00;;;17.95;71.56;99709.78;5059146;27;129821;-75
2022/06/06 03:15:38;;;;;;;7.15;4.38;;;14.30;1.00;;;18.60;67.21;99705.72;5059556;27;120058;-72
2022/06/06 03:21:24;;;;;;;7.60;4.22;;;14.70;1.00;;;19.32;63.99;99714.59;5058763;27;129805;-73
2022/06/06 03:24:13;;;;;;;6.90;4.32;;;14.90;1.00;;;19.22;62.42;99716.00;5058975;27;129874;-73
2022/06/06 03:26:59;;;;;;;8.70;5.35;;;15.00;99.90;;;18.00;66.58;99708.72;5059205;27;120126;-74
2022/06/06 03:29:46;;;;;;;10.50;5.35;;;13.90;1.00;;;17.28;69.33;99704.19;5059498;27;120865;-76
2022/06/06 03:32:27;;;;;;;7.88;5.60;;;13.50;1.00;;;17.25;69.66;99710.38;5058012;27;130321;-76
2022/06/06 03:35:06;;;;;;;8.70;6.45;;;13.50;1.00;;;17.12;70.77;99717.84;5059056;27;129595;-73
2022/06/06 03:37:52;;;;;;;7.75;5.78;;;13.30;1.00;;;16.86;71.98;99704.56;5057524;27;119938;-74
2022/06/06 03:40:34;;;;;;;7.97;5.38;;;13.40;1.00;;;16.48;73.76;99706.59;5061096;27;118738;-74
2022/06/06 03:43:15;;;;;;;9.50;6.20;;;13.30;1.00;;;16.34;74.78;99700.72;5057192;27;129826;-74
2022/06/06 03:45:51;;;;;;;8.27;5.38;;;13.20;1.00;;;16.37;75.46;99694.53;5074379;27;129586;-73
2022/06/06 03:48:30;;;;;;;;;;;13.40;1.00;;;15.97;77.34;99692.53;5061366;27;118606;-73
2022/06/06 03:51:10;;;;;;;11.38;5.78;;;13.30;1.00;;;16.09;77.15;99697.22;5078266;27;119043;-72
2022/06/06 03:53:55;;;;;;;7.18;5.68;;;13.40;1.00;;;16.13;77.43;99696.19;5058589;27;129980;-72
2022/06/06 03:56:42;;;;;;;9.48;6.15;;;13.60;1.00;;;16.22;77.25;99708.94;5060895;27;128959;-73
2022/06/06 03:59:11;;;;;;;6.72;5.18;;;13.70;1.00;;;16.27;76.95;99700.50;5059605;27;120555;-74
2022/06/06 04:01:43;;;;;;;7.82;5.63;;;13.70;1.00;;;16.17;77.49;99705.31;5059401;27;122696;-72
2022/06/06 04:04:12;;;;;;;8.20;5.90;;;13.50;1.00;;;16.14;77.54;99692.31;5060211;27;129433;-74
2022/06/06 04:06:40;;;;;;;6.65;5.50;;;13.50;1.00;;;16.21;77.18;99690.94;5060550;27;128734;-73
2022/06/06 04:09:09;;;;;;;7.60;4.57;;;13.90;1.00;;;16.25;76.46;99702.78;5060938;27;119232;-76
2022/06/06 04:12:00;;;;;;;8.20;5.07;;;13.80;1.00;;;16.05;76.83;99699.84;5062423;27;118976;-75
2022/06/06 04:14:39;;;;;;;8.25;4.65;;;14.10;1.00;;;16.11;76.02;99693.00;5062344;27;131225;-73
2022/06/06 04:17:24;;;;;;;7.25;4.70;;;14.20;1.00;;;16.19;75.52;99694.03;5064443;27;128640;-76
2022/06/06 04:20:03;;;;;;;6.60;4.45;;;14.30;1.00;;;16.10;75.82;99696.88;5061561;27;120092;-74
2022/06/06 04:22:45;;;;;;;8.57;5.05;;;14.30;1.00;;;16.26;75.09;99698.91;5065442;27;118986;-75
2022/06/06 04:25:30;;;;;;;8.15;4.38;;;14.30;1.00;;;16.54;73.76;99701.69;5063206;27;129190;-76
2022/06/06 04:28:09;;;;;;;6.65;4.75;;;14.50;1.00;;;16.49;72.34;99702.75;5063729;27;129867;-75
2022/06/06 04:30:51;;;;;;;8.32;4.60;;;14.60;1.00;;;16.38;73.67;99704.38;5063733;27;119096;-73
2022/06/06 04:33:25;;;;;;;7.35;4.80;;;14.70;1.00;;;16.50;74.43;99704.34;5065565;27;118956;-76
2022/06/06 04:36:07;;;;;;;7.97;4.78;;;14.90;1.00;;;16.58;74.00;99707.28;5062384;27;131027;-73
2022/06/06 04:38:47;;;;;;;7.70;4.72;;;15.00;1.00;;;16.82;73.71;99704.47;5061061;27;130003;-73
2022/06/06 04:41:29;;;;;;;8.88;5.10;;;15.10;1.00;;;16.84;72.79;99702.19;5061574;27;119502;-74
2022/06/06 04:44:12;;;;;;;7.75;4.93;;;15.10;99.90;;;16.99;72.84;99714.34;5061919;27;119850;-73
2022/06/06 04:46:49;;;;;;;6.55;4.30;;;15.40;99.90;;;16.95;71.62;99712.66;5061433;27;128976;-73
2022/06/06 04:49:17;;;;;;;6.75;4.47;;;15.40;99.90;;;17.08;71.57;99716.97;5056820;27;129344;-76
2022/06/06 04:51:47;;;;;;;6.20;4.25;;;15.50;99.90;;;17.18;71.89;99713.69;5061976;27;121910;-77
2022/06/06 04:54:21;;;;;;;9.00;4.22;;;15.70;99.90;;;17.26;71.26;99717.41;5060932;27;123015;-74
2022/06/06 04:56:51;;;;;;;8.38;4.38;;;15.70;99.90;;;17.40;71.86;99719.75;5062559;27;129992;-76
2022/06/06 04:59:25;;;;;;;7.72;4.25;;;15.90;99.90;;;17.68;70.25;99716.16;5062599;27;129154;-73
2022/06/06 05:01:54;;;;;;;8.00;3.83;;;16.00;99.90;;;17.75;69.66;99716.34;5062138;27;121203;-73
2022/06/06 05:04:23;;;;;;;5.95;3.60;;;16.10;99.90;;;17.83;69.46;99718.09;5061238;27;119560;-73
2022/06/06 05:07:26;;;;;;;5.57;3.80;;;16.20;99.90;;;18.00;68.98;99724.38;5060272;27;130163;-73
2022/06/06 05:10:22;;;;;;;8.30;3.80;;;16.40;99.90;;;18.38;66.71;99715.47;5060827;27;129585;-74
2022/06/06 05:13:44;;;;;;;6.00;3.70;;;16.60;99.90;;;18.31;64.37;99721.59;5060982;27;120304;-73
2022/06/06 05:16:58;;;;;;;4.80;3.10;;;16.60;99.90;;;18.59;62.74;99731.63;5057532;27;119243;-72
2022/06/06 05:19:49;;;;;;;6.15;3.05;;;17.00;99.90;;;18.83;61.20;99724.25;5058963;27;130265;-74
2022/06/06 05:22:58;;;;;;;6.18;2.70;;;17.10;99.90;;;18.94;61.72;99730.78;5062105;27;128652;-72
2022/06/06 05:26:01;;;;;;;4.82;2.28;;;17.10;99.90;;;18.87;59.75;99725.16;5060455;27;119503;-73
2022/06/06 05:29:21;;;;;;;5.28;2.70;;;17.30;99.90;;;18.75;61.64;99726.06;5060914;27;119365;-73
2022/06/06 05:32:13;;;;;;;3.88;2.45;;;17.30;99.90;;;18.77;60.96;99734.72;5064013;27;130175;-73
2022/06/06 05:34:49;;;;;;;3.53;2.22;;;17.40;99.90;;;18.71;60.41;99727.16;5060840;27;130704;-74
2022/06/06 05:37:38;;;;;;;3.80;2.38;;;17.30;99.90;;;18.92;63.22;99721.34;5062811;27;118632;-73
2022/06/06 05:40:21;;;;;;;5.40;2.60;;;17.60;99.90;;;18.89;62.00;99719.31;5064127;27;119533;-72
2022/06/06 05:43:18;;;;;;;7.68;2.83;;;17.70;99.90;;;19.18;61.44;99717.88;5060363;27;129784;-73
2022/06/06 05:45:57;;;;;;;6.43;2.42;;;17.80;99.90;;;19.60;60.60;99722.56;5060093;27;129636;-73
2022/06/06 05:48:44;;;;;;;4.05;2.30;;;18.10;99.90;;;19.78;58.56;99733.13;5059378;27;123879;-72
2022/06/06 05:51:29;;;;;;;6.03;2.25;;;18.30;99.90;;;19.84;58.61;99742.69;5060607;27;122462;-73
2022/06/06 05:54:24;;;;;;;3.13;1.83;;;18.30;99.90;;;19.82;55.82;99739.47;5059382;27;130229;-72
2022/06/06 05:57:39;;;;;;;2.85;1.77;;;18.30;99.90;;;19.71;54.67;99745.59;5061815;27;129199;-72
2022/06/06 06:00:21;;;;;;;2.10;1.30;;;18.30;99.90;;;19.72;52.39;99741.66;5060203;27;120361;-73
2022/06/06 06:03:45;;;;;;;6.25;2.00;;;18.40;99.90;;;20.00;51.37;99740.56;5062801;27;119201;-74
2022/06/06 06:06:26;;;;;;;3.38;1.95;;;18.70;99.90;;;20.04;53.15;99735.91;5059818;27;130237;-72
2022/06/06 06:09:29;;;;;;;3.20;1.80;;;18.50;99.90;;;20.23;52.06;99742.50;5060082;27;129514;-74
2022/06/06 06:12:22;;;;;;;2.67;1.75;;;18.70;99.90;;;20.21;52.23;99728.28;5060262;27;120056;-74
2022/06/06 06:15:04;;;;;;;2.45;1.40;;;18.70;99.90;;;20.26;51.75;99734.28;5060481;27;119216;-72
2022/06/06 06:17:34;;;;;;;4.38;1.60;;;18.80;99.90;;;20.14;52.09;99736.47;5057307;27;131113;-75
2022/06/06 06:20:09;;;;;;;2.33;1.52;;;18.60;99.90;;;19.94;49.05;99742.03;5061614;27;128686;-74
2022/06/06 06:22:41;;;;;;;3.10;1.80;;;18.70;99.90;;;20.39;48.89;99736.81;5058875;27;120476;-72
2022/06/06 06:25:11;;;;;;;2.75;1.40;;;18.90;99.90;;;20.51;50.62;99728.31;5059921;27;120599;-72
2022/06/06 06:27:41;;;;;;;2.15;1.50;;;19.00;99.90;;;20.61;51.36;99729.63;5060155;27;130536;-72
2022/06/06 06:30:12;;;;;;;2.78;1.50;;;19.10;99.90;;;21.04;48.64;99730.19;5075396;27;129367;-74
2022/06/06 06:33:02;;;;;;;2.05;1.30;;;19.40;99.90;;;20.98;46.48;99732.47;5060065;27;120589;-73
2022/06/06 06:35:44;;;;;;;1.98;1.23;;;19.40;99.90;;;20.80;46.88;99731.47;5060621;27;119413;-74
2022/06/06 06:38:51;;;;;;;5.43;1.40;;;19.30;99.90;;;20.64;46.62;99717.84;5061732;27;129311;-73
2022/06/06 06:41:34;;;;;;;3.67;1.50;;;19.30;99.90;;;20.63;46.21;99716.25;5059732;27;129933;-74
2022/06/06 06:44:11;;;;;;;3.83;1.60;;;19.20;99.90;;;20.53;46.33;99722.44;5061658;27;121809;-73
2022/06/06 06:46:47;;;;;;;2.50;1.50;;;19.20;99.90;;;20.66;47.28;99721.06;5062674;27;121106;-71
2022/06/06 06:49:35;;;;;;;3.35;1.58;;;19.40;99.90;;;20.82;47.60;99713.38;5060603;27;130035;-73
2022/06/06 06:52:18;;;;;;;7.00;2.05;;;19.60;99.90;;;21.01;46.23;99703.34;5060039;27;129935;-73
2022/06/06 06:55:03;;;;;;;2.95;1.58;;;19.60;99.90;;;20.97;46.93;99706.09;5060097;27;119324;-73
2022/06/06 06:57:56;;;;;;;2.80;1.60;;;19.50;99.90;;;20.89;46.12;99700.84;5075722;27;119790;-74
2022/06/06 07:00:26;;;;;;;2.67;1.55;;;19.50;99.90;;;21.22;44.68;99711.06;5061963;27;130062;-74
2022/06/06 07:09:18;;;;;;;2.42;1.40;;;20.20;99.90;;;21.43;40.83;99717.97;5061763;27;119249;-75
2022/06/06 07:12:08;;;;;;;2.05;1.50;;;20.20;99.90;;;21.40;43.55;99719.53;5057966;27;129874;-73
2022/06/06 07:15:03;;;;;;;3.03;1.60;;;20.10;99.90;;;21.42;43.48;99722.69;5059112;27;129838;-74
2022/06/06 07:17:35;;;;;;;6.38;1.77;;;20.00;99.90;;;22.00;43.45;99706.63;5059632;27;119873;-72
2022/06/06 07:20:08;;;;;;;3.65;1.55;;;20.20;99.90;;;22.53;42.49;99705.41;5059263;27;119735;-71
2022/06/06 07:25:29;;;;;;;2.97;1.50;;;20.30;99.90;;;22.18;41.24;99696.50;5060930;27;129085;-71
2022/06/06 07:27:57;;;;;;;3.28;1.50;;;20.40;99.90;;;21.82;40.64;99695.47;5059589;27;120194;-73
2022/06/06 07:30:33;;;;;;;2.47;1.30;;;20.20;99.90;;;21.95;40.74;99688.44;5059576;27;119588;-73
2022/06/06 07:33:33;;;;;;;1.92;1.42;;;20.30;99.90;;;22.26;39.66;99684.28;5058781;27;130814;-73
2022/06/06 07:36:21;;;;;;;1.63;1.10;;;20.40;99.90;;;22.42;39.43;99694.28;5060748;27;129173;-75
2022/06/06 07:39:15;;;;;;;2.05;1.20;;;20.10;99.90;;;21.90;41.24;99686.84;5058030;27;121630;-72
2022/06/06 07:42:04;;;;;;;3.00;1.52;;;20.20;99.90;;;21.74;41.38;99689.09;5043832;27;121176;-73
2022/06/06 07:44:55;;;;;;;2.08;1.40;;;20.20;99.90;;;21.89;40.72;99681.69;5078145;27;130290;-73
2022/06/06 07:47:43;;;;;;;2.33;1.58;;;20.30;99.90;;;21.73;40.78;99693.03;5060823;27;129701;-73
2022/06/06 07:50:21;;;;;;;2.00;1.40;;;20.10;99.90;;;21.69;41.57;99678.38;5062483;27;120748;-73
2022/06/06 07:52:56;;;;;;;3.28;1.48;;;20.20;99.90;;;22.00;41.76;99685.34;5062328;27;120022;-72
2022/06/06 07:55:31;;;;;;;1.70;1.30;;;20.40;99.90;;;21.84;41.80;99685.59;5064029;27;130259;-74
2022/06/06 07:58:11;;;;;;;3.72;1.70;;;20.30;99.90;;;22.13;41.85;99683.03;5064428;27;128633;-73
2022/06/06 08:00:40;;;;;;;3.17;1.42;;;20.40;99.90;;;22.69;40.50;99680.97;5064379;27;119633;-75
2022/06/06 08:03:18;;;;;;;3.05;1.52;;;20.50;99.90;;;23.15;40.13;99680.38;5067237;27;119474;-72
2022/06/06 08:06:20;;;;;;;2.65;1.40;;;20.90;99.90;;;23.15;39.97;99685.09;5063784;27;129934;-74
2022/06/06 08:09:31;;;;;;;2.33;1.30;;;21.00;99.90;;;23.13;40.37;99679.16;5066099;27;130047;-75
2022/06/06 08:12:17;;;;;;;3.25;1.60;;;21.20;99.90;;;23.29;38.69;99685.09;5067110;27;120262;-73
2022/06/06 08:15:03;;;;;;;4.90;1.57;;;20.90;99.90;;;23.21;39.77;99689.06;5069030;27;118324;-74
2022/06/06 08:17:56;;;;;;;4.85;2.13;;;20.70;99.90;;;22.67;42.25;99679.78;5065108;27;130656;-73
2022/06/06 08:20:32;;;;;;;3.10;1.67;;;20.90;99.90;;;22.59;41.59;99682.53;5063364;27;130405;-73
2022/06/06 08:23:02;;;;;;;2.75;1.30;;;21.00;99.90;;;22.67;40.17;99674.25;5065027;27;120482;-73
2022/06/06 08:25:35;;;;;;;2.58;1.50;;;21.20;99.90;;;23.43;41.19;99675.25;5062311;27;119491;-71
2022/06/06 08:28:06;;;;;;;2.38;1.50;;;21.70;99.90;;;23.78;38.15;99668.09;5059502;27;129858;-71
2022/06/06 08:30:36;;;;;;;3.30;1.50;;;21.80;99.90;;;23.24;39.87;99666.13;5077395;27;129202;-74
2022/06/06 08:33:05;;;;;;;3.70;1.40;;;21.30;99.90;;;22.77;40.96;99679.03;5059319;27;122069;-73
2022/06/06 08:35:46;;;;;;;4.47;2.17;;;21.00;99.90;;;23.00;40.51;99669.59;5061961;27;121753;-73
2022/06/06 08:38:38;;;;;;;4.82;1.50;;;21.10;99.90;;;23.55;38.57;99668.53;5061460;27;130316;-75
2022/06/06 08:41:46;;;;;;;2.53;1.52;;;20.90;99.90;;;23.18;39.63;99681.53;5061515;27;130555;-74
2022/06/06 08:44:29;;;;;;;4.07;1.60;;;21.10;99.90;;;22.98;39.99;99687.41;5064763;27;119548;-74
2022/06/06 08:47:15;;;;;;;2.22;1.50;;;21.30;99.90;;;22.78;39.99;99678.66;5062022;27;119873;-75
2022/06/06 08:50:45;;;;;;;2.47;1.33;;;21.10;99.90;;;23.17;38.98;99671.66;5061507;27;130396;-72
2022/06/06 08:54:13;;;;;;;2.05;1.30;;;21.10;99.90;;;23.11;38.11;99670.47;5061725;27;129448;-72
2022/06/06 08:57:23;;;;;;;2.90;1.30;;;21.40;99.90;;;23.79;37.60;99661.38;5046535;27;119420;-73
2022/06/06 09:00:35;;;;;;;2.78;1.60;;;20.80;99.90;;;23.83;37.36;99662.97;5060970;27;119370;-73
2022/06/06 09:03:45;;;;;;;3.10;1.50;;;20.90;99.90;;;23.72;37.22;99669.69;5061418;27;130426;-71
2022/06/06 09:07:22;;;;;;;3.50;1.60;;;21.50;99.90;;;23.07;38.28;99675.16;5063781;27;131484;-76
2022/06/06 09:10:45;;;;;;;2.45;1.58;;;21.40;99.90;;;23.50;38.75;99672.50;5061455;27;120274;-71
2022/06/06 09:13:59;;;;;;;2.88;1.75;;;21.10;99.90;;;23.83;37.99;99673.25;5042608;27;119538;-74
2022/06/06 09:17:19;;;;;;;5.88;1.42;;;21.60;99.90;;;24.29;37.13;99664.06;5062509;27;129502;-73
2022/06/06 09:20:22;;;;;;;2.45;1.65;;;21.80;99.90;;;24.02;36.56;99670.09;5060907;27;129854;-75
2022/06/06 09:24:00;;;;;;;3.80;1.40;;;21.80;99.90;;;24.58;36.57;99666.78;5060935;27;120023;-73
2022/06/06 09:26:40;;;;;;;3.55;1.40;;;22.30;99.90;;;24.14;37.66;99676.41;5060101;27;119580;-75
2022/06/06 09:29:58;;;;;;;5.82;1.60;;;21.60;99.90;;;24.13;37.26;99680.38;5060632;27;129960;-77
2022/06/06 09:33:08;;;;;;;3.05;1.50;;;21.80;99.90;;;23.82;38.70;99674.44;5035340;27;128867;-73
2022/06/06 09:35:53;;;;;;;2.95;1.70;;;22.00;99.90;;;23.58;38.20;99685.16;5059929;27;122068;-76
2022/06/06 09:38:46;;;;;;;6.68;2.00;;;21.80;99.90;;;23.38;38.38;99687.50;5060842;27;121896;-74
2022/06/06 09:41:33;;;;;;;5.07;1.92;;;21.60;99.90;;;23.85;37.15;99679.22;5060494;27;130519;-72
2022/06/06 09:44:23;;;;;;;5.65;1.80;;;22.00;99.90;;;24.00;37.40;99682.78;5060698;27;129624;-73
2022/06/06 09:47:48;;;;;;;3.05;1.65;;;22.10;99.90;;;23.94;37.40;99679.59;5059389;27;120458;-73
2022/06/06 09:51:13;;;;;;;2.88;1.65;;;22.20;99.90;;;24.20;36.36;99670.06;5059519;27;119928;-76
2022/06/06 10:01:27;;;;;;;3.80;1.67;;;22.30;99.90;;;24.43;36.50;99665.22;5051804;27;119922;-74
2022/06/06 10:04:40;;;;;;;5.70;1.92;;;22.40;99.90;;;23.81;36.54;99664.53;5040109;27;119617;-75
2022/06/06 10:07:57;;;;;;;3.88;1.85;;;22.00;99.90;;;24.35;36.33;99670.78;5039076;27;130588;-75
2022/06/06 10:11:13;;;;;;;3.40;1.70;;;21.80;99.90;;;24.26;36.69;99673.19;5039113;27;129540;-73
2022/06/06 10:14:04;;;;;;;4.22;1.90;;;22.20;99.90;;;23.95;36.79;99669.31;5039692;27;120133;-73
2022/06/06 10:17:12;;;;;;;3.03;1.90;;;22.30;99.90;;;24.39;34.81;99666.03;5024406;27;118961;-75
2022/06/06 10:20:09;;;;;;;3.22;1.60;;;22.60;99.90;;;24.61;34.60;99665.97;5019035;27;130350;-74
2022/06/06 10:23:07;;;;;;;3.33;1.60;;;22.40;99.90;;;25.08;34.61;99660.97;5039311;27;130118;-74
2022/06/06 10:26:25;;;;;;;2.85;1.40;;;22.90;99.90;;;25.56;33.71;99655.91;5039544;27;119676;-72
2022/06/06 10:33:18;;;;;;;3.10;1.50;;;23.40;99.90;;;26.31;30.77;99654.38;5007683;27;129081;-71
2022/06/06 10:36:21;;;;;;;3.92;1.80;;;22.60;99.90;;;26.22;31.90;99662.44;5039024;27;129604;-75
2022/06/06 10:39:21;;;;;;;4.53;1.98;;;22.80;99.90;;;26.40;30.50;99663.00;4983542;27;121792;-72
2022/06/06 10:42:27;;;;;;;5.80;2.10;;;23.20;99.90;;;26.92;30.33;99653.63;5024656;27;121688;-74
2022/06/06 10:45:24;;;;;;;2.20;1.42;;;23.40;99.90;;;26.17;30.45;99649.75;5040579;27;130543;-73
2022/06/06 10:48:17;;;;;;;;;;;23.60;99.90;;;26.42;29.56;99648.69;5039264;27;130048;-74
2022/06/06 10:51:41;;;;;;;4.90;1.50;;;23.10;99.30;;;27.10;29.80;99647.78;5039600;27;120524;-75
2022/06/06 10:54:55;;;;;;;4.32;2.33;;;23.80;99.90;;;27.25;28.22;99646.38;5039135;27;119806;-76
2022/06/06 10:58:13;;;;;;;3.90;1.90;;;23.10;95.30;;;27.44;30.01;99641.31;4986875;27;130334;-74
2022/06/06 11:01:34;;;;;;;3.75;2.13;;;23.50;99.90;;;27.86;30.77;99647.38;5024083;27;128705;-74
2022/06/06 11:04:38;;;;;;;4.45;1.90;;;24.20;99.90;;;28.14;28.83;99639.69;4994479;27;120272;-73
2022/06/06 11:08:00;;;;;;;4.55;1.60;;;24.50;97.40;;;26.97;31.30;99638.44;5023729;27;119225;-76
2022/06/06 11:11:39;;;;;;;3.03;1.70;;;23.90;99.90;;;26.25;32.53;99637.34;5037252;27;130225;-74
2022/06/06 11:14:13;;;;;;;2.92;1.67;;;23.30;99.90;;;26.52;29.71;99645.78;5019516;27;128465;-76
2022/06/06 11:17:14;;;;;;;2.75;1.60;;;23.70;95.60;;;26.73;30.29;99646.72;5023474;27;119423;-74
2022/06/06 11:20:41;;;;;;;2.78;1.60;;;23.00;99.90;;;26.70;30.44;99639.22;5038566;27;119003;-73
2022/06/06 11:23:20;;;;;;;4.60;1.80;;;23.20;99.90;;;26.59;30.13;99630.97;5038136;27;130117;-72
2022/06/06 11:26:22;;;;;;;3.38;1.70;;;23.70;98.00;;;26.99;30.62;99624.88;5038327;27;130030;-72
2022/06/06 11:29:17;;;;;;;3.33;1.42;;;24.10;99.90;;;26.49;29.82;99629.91;5038486;27;119853;-73
2022/06/06 11:32:15;;;;;;;3.00;1.85;;;23.40;97.90;;;25.76;31.98;99631.88;5038913;27;119759;-76
2022/06/06 11:35:28;;;;;;;3.47;1.60;;;23.30;99.90;;;25.68;33.71;99626.78;5005649;27;129540;-74
2022/06/06 11:38:56;;;;;;;5.00;1.50;;;23.40;99.90;;;25.50;32.83;99613.09;5000054;28;130001;-73
2022/06/06 11:42:00;;;;;;;4.78;2.67;;;23.40;99.90;;;25.76;32.78;99615.22;5036761;27;122721;-76
2022/06/06 11:45:23;;;;;;;2.83;1.40;;;23.40;99.90;;;25.73;31.46;99604.13;5038896;27;121973;-74
2022/06/06 11:48:20;;;;;;;3.60;1.40;;;23.50;99.10;;;25.84;32.11;99611.16;5024113;27;129126;-73
2022/06/06 11:51:33;;;;;;;;;;;23.50;99.90;;;26.12;31.88;99609.28;5039518;27;130279;-72
2022/06/06 11:55:01;;;;;;;3.25;1.67;;;23.50;99.90;;;25.04;33.05;99593.59;4969159;27;119862;-74
2022/06/06 11:57:39;;;;;;;;;;;23.10;99.90;;;25.44;33.75;99588.50;5039238;27;119280;-72